sensor_id;sensor_type;location;lat;lon;timestamp;P1;durP1;ratioP1;P2;durP2;ratioP2
15198;SDS011;7700;48.654;9.070;2024-01-11T00:01:03;38.30;;;26.27;;
15198;SDS011;7700;48.654;9.070;2024-01-11T00:03:28;35.07;;;25.07;;
15198;SDS011;7700;48.654;9.070;2024-01-11T00:05:54;41.60;;;27.07;;
15198;SDS011;7700;48.654;9.070;2024-01-11T00:08:20;38.03;;;25.47;;
15198;SDS011;7700;48.654;9.070;2024-01-11T00:10:45;37.20;;;24.83;;
15198;SDS011;7700;48.654;9.070;2024-01-11T00:13:11;38.43;;;25.97;;
15198;SDS011;7700;48.654;9.070;2024-01-11T00:15:36;32.77;;;24.37;;
15198;SDS011;7700;48.654;9.070;2024-01-11T00:18:02;35.47;;;25.27;;
15198;SDS011;7700;48.654;9.070;2024-01-11T00:20:28;37.70;;;25.07;;
15198;SDS011;7700;48.654;9.070;2024-01-11T00:22:53;35.03;;;24.23;;
15198;SDS011;7700;48.654;9.070;2024-01-11T00:25:19;36.60;;;26.67;;
15198;SDS011;7700;48.654;9.070;2024-01-11T00:27:44;35.97;;;24.70;;
15198;SDS011;7700;48.654;9.070;2024-01-11T00:30:10;38.67;;;26.07;;
15198;SDS011;7700;48.654;9.070;2024-01-11T00:32:35;37.20;;;26.10;;
15198;SDS011;7700;48.654;9.070;2024-01-11T00:35:01;40.33;;;25.70;;
15198;SDS011;7700;48.654;9.070;2024-01-11T00:37:26;38.67;;;26.97;;
15198;SDS011;7700;48.654;9.070;2024-01-11T00:39:52;35.13;;;25.77;;
15198;SDS011;7700;48.654;9.070;2024-01-11T00:42:17;32.07;;;24.77;;
15198;SDS011;7700;48.654;9.070;2024-01-11T00:44:43;34.13;;;24.33;;
15198;SDS011;7700;48.654;9.070;2024-01-11T00:47:10;33.17;;;24.97;;
15198;SDS011;7700;48.654;9.070;2024-01-11T00:49:36;35.97;;;23.30;;
15198;SDS011;7700;48.654;9.070;2024-01-11T00:52:01;32.47;;;22.07;;
15198;SDS011;7700;48.654;9.070;2024-01-11T00:54:27;36.43;;;23.33;;
15198;SDS011;7700;48.654;9.070;2024-01-11T00:56:52;33.23;;;23.23;;
15198;SDS011;7700;48.654;9.070;2024-01-11T00:59:18;31.27;;;23.03;;
15198;SDS011;7700;48.654;9.070;2024-01-11T01:01:49;36.57;;;23.40;;
15198;SDS011;7700;48.654;9.070;2024-01-11T01:04:15;31.87;;;22.03;;
15198;SDS011;7700;48.654;9.070;2024-01-11T01:06:41;34.93;;;22.80;;
15198;SDS011;7700;48.654;9.070;2024-01-11T01:09:07;33.20;;;21.80;;
15198;SDS011;7700;48.654;9.070;2024-01-11T01:11:33;31.77;;;20.87;;
15198;SDS011;7700;48.654;9.070;2024-01-11T01:13:58;30.13;;;20.93;;
15198;SDS011;7700;48.654;9.070;2024-01-11T01:16:24;28.27;;;20.40;;
15198;SDS011;7700;48.654;9.070;2024-01-11T01:18:49;34.40;;;21.17;;
15198;SDS011;7700;48.654;9.070;2024-01-11T01:21:15;29.43;;;21.27;;
15198;SDS011;7700;48.654;9.070;2024-01-11T01:23:40;27.23;;;20.83;;
15198;SDS011;7700;48.654;9.070;2024-01-11T01:26:06;28.97;;;20.33;;
15198;SDS011;7700;48.654;9.070;2024-01-11T01:28:32;32.73;;;21.43;;
15198;SDS011;7700;48.654;9.070;2024-01-11T01:30:57;36.07;;;23.07;;
15198;SDS011;7700;48.654;9.070;2024-01-11T01:33:23;37.47;;;23.33;;
15198;SDS011;7700;48.654;9.070;2024-01-11T01:35:48;31.87;;;21.77;;
15198;SDS011;7700;48.654;9.070;2024-01-11T01:38:14;32.00;;;21.53;;
15198;SDS011;7700;48.654;9.070;2024-01-11T01:40:39;34.67;;;22.60;;
15198;SDS011;7700;48.654;9.070;2024-01-11T01:43:08;32.90;;;23.13;;
15198;SDS011;7700;48.654;9.070;2024-01-11T01:45:34;34.77;;;23.17;;
15198;SDS011;7700;48.654;9.070;2024-01-11T01:48:00;31.00;;;22.20;;
15198;SDS011;7700;48.654;9.070;2024-01-11T01:50:27;34.63;;;22.87;;
15198;SDS011;7700;48.654;9.070;2024-01-11T01:52:53;31.70;;;23.13;;
15198;SDS011;7700;48.654;9.070;2024-01-11T01:55:20;34.83;;;24.80;;
15198;SDS011;7700;48.654;9.070;2024-01-11T01:57:46;36.77;;;23.03;;
15198;SDS011;7700;48.654;9.070;2024-01-11T02:00:12;33.80;;;23.70;;
15198;SDS011;7700;48.654;9.070;2024-01-11T02:02:39;36.13;;;23.07;;
15198;SDS011;7700;48.654;9.070;2024-01-11T02:05:06;34.07;;;23.10;;
15198;SDS011;7700;48.654;9.070;2024-01-11T02:07:32;35.37;;;23.03;;
15198;SDS011;7700;48.654;9.070;2024-01-11T02:09:58;36.90;;;24.57;;
15198;SDS011;7700;48.654;9.070;2024-01-11T02:12:23;37.30;;;24.03;;
15198;SDS011;7700;48.654;9.070;2024-01-11T02:14:50;39.07;;;23.13;;
15198;SDS011;7700;48.654;9.070;2024-01-11T02:17:17;30.40;;;21.60;;
15198;SDS011;7700;48.654;9.070;2024-01-11T02:19:43;29.63;;;22.43;;
15198;SDS011;7700;48.654;9.070;2024-01-11T02:22:12;34.20;;;22.97;;
15198;SDS011;7700;48.654;9.070;2024-01-11T02:24:43;32.63;;;22.53;;
15198;SDS011;7700;48.654;9.070;2024-01-11T02:27:09;37.33;;;22.87;;
15198;SDS011;7700;48.654;9.070;2024-01-11T02:29:35;31.97;;;22.47;;
15198;SDS011;7700;48.654;9.070;2024-01-11T02:32:01;37.83;;;23.77;;
15198;SDS011;7700;48.654;9.070;2024-01-11T02:34:28;34.70;;;23.17;;
15198;SDS011;7700;48.654;9.070;2024-01-11T02:36:54;34.17;;;23.17;;
15198;SDS011;7700;48.654;9.070;2024-01-11T02:39:20;32.20;;;22.73;;
15198;SDS011;7700;48.654;9.070;2024-01-11T02:41:48;33.60;;;22.40;;
15198;SDS011;7700;48.654;9.070;2024-01-11T02:44:15;31.67;;;21.60;;
15198;SDS011;7700;48.654;9.070;2024-01-11T02:46:41;35.37;;;22.60;;
15198;SDS011;7700;48.654;9.070;2024-01-11T02:49:06;29.13;;;21.23;;
15198;SDS011;7700;48.654;9.070;2024-01-11T02:51:32;31.47;;;22.53;;
15198;SDS011;7700;48.654;9.070;2024-01-11T02:53:57;34.27;;;21.60;;
15198;SDS011;7700;48.654;9.070;2024-01-11T02:56:23;31.77;;;22.40;;
15198;SDS011;7700;48.654;9.070;2024-01-11T02:58:49;31.63;;;21.73;;
15198;SDS011;7700;48.654;9.070;2024-01-11T03:01:14;30.13;;;21.87;;
15198;SDS011;7700;48.654;9.070;2024-01-11T03:03:40;31.90;;;21.70;;
15198;SDS011;7700;48.654;9.070;2024-01-11T03:06:05;34.73;;;22.83;;
15198;SDS011;7700;48.654;9.070;2024-01-11T03:08:31;32.53;;;23.37;;
15198;SDS011;7700;48.654;9.070;2024-01-11T03:10:56;32.20;;;22.67;;
15198;SDS011;7700;48.654;9.070;2024-01-11T03:13:22;32.23;;;21.77;;
15198;SDS011;7700;48.654;9.070;2024-01-11T03:15:48;31.70;;;22.17;;
15198;SDS011;7700;48.654;9.070;2024-01-11T03:18:14;31.40;;;22.47;;
15198;SDS011;7700;48.654;9.070;2024-01-11T03:20:39;31.03;;;22.27;;
15198;SDS011;7700;48.654;9.070;2024-01-11T03:23:05;33.60;;;22.67;;
15198;SDS011;7700;48.654;9.070;2024-01-11T03:25:30;32.33;;;22.83;;
15198;SDS011;7700;48.654;9.070;2024-01-11T03:27:57;27.67;;;20.97;;
15198;SDS011;7700;48.654;9.070;2024-01-11T03:30:23;36.30;;;22.90;;
15198;SDS011;7700;48.654;9.070;2024-01-11T03:32:49;31.27;;;21.40;;
15198;SDS011;7700;48.654;9.070;2024-01-11T03:35:14;34.93;;;22.53;;
15198;SDS011;7700;48.654;9.070;2024-01-11T03:37:40;34.07;;;21.43;;
15198;SDS011;7700;48.654;9.070;2024-01-11T03:40:05;33.10;;;22.20;;
15198;SDS011;7700;48.654;9.070;2024-01-11T03:42:31;32.57;;;22.37;;
15198;SDS011;7700;48.654;9.070;2024-01-11T03:44:57;32.17;;;22.93;;
15198;SDS011;7700;48.654;9.070;2024-01-11T03:47:23;31.97;;;22.30;;
15198;SDS011;7700;48.654;9.070;2024-01-11T03:49:48;32.40;;;22.03;;
15198;SDS011;7700;48.654;9.070;2024-01-11T03:52:14;32.00;;;21.67;;
15198;SDS011;7700;48.654;9.070;2024-01-11T03:54:39;34.40;;;23.60;;
15198;SDS011;7700;48.654;9.070;2024-01-11T03:57:05;31.27;;;21.80;;
15198;SDS011;7700;48.654;9.070;2024-01-11T03:59:31;30.80;;;21.20;;
15198;SDS011;7700;48.654;9.070;2024-01-11T04:01:57;32.40;;;23.17;;
15198;SDS011;7700;48.654;9.070;2024-01-11T04:04:24;33.17;;;21.80;;
15198;SDS011;7700;48.654;9.070;2024-01-11T04:06:50;34.93;;;22.57;;
15198;SDS011;7700;48.654;9.070;2024-01-11T04:09:17;32.93;;;21.47;;
15198;SDS011;7700;48.654;9.070;2024-01-11T04:11:43;30.13;;;21.77;;
15198;SDS011;7700;48.654;9.070;2024-01-11T04:14:08;30.23;;;21.87;;
15198;SDS011;7700;48.654;9.070;2024-01-11T04:16:34;31.47;;;22.50;;
15198;SDS011;7700;48.654;9.070;2024-01-11T04:19:04;31.77;;;22.33;;
15198;SDS011;7700;48.654;9.070;2024-01-11T04:21:30;35.90;;;24.27;;
15198;SDS011;7700;48.654;9.070;2024-01-11T04:23:56;35.57;;;23.97;;
15198;SDS011;7700;48.654;9.070;2024-01-11T04:26:22;32.23;;;23.87;;
15198;SDS011;7700;48.654;9.070;2024-01-11T04:28:49;34.47;;;23.03;;
15198;SDS011;7700;48.654;9.070;2024-01-11T04:31:15;30.27;;;22.77;;
15198;SDS011;7700;48.654;9.070;2024-01-11T04:33:44;34.23;;;22.77;;
15198;SDS011;7700;48.654;9.070;2024-01-11T04:36:10;32.23;;;23.17;;
15198;SDS011;7700;48.654;9.070;2024-01-11T04:38:37;32.43;;;23.40;;
15198;SDS011;7700;48.654;9.070;2024-01-11T04:41:09;31.00;;;23.00;;
15198;SDS011;7700;48.654;9.070;2024-01-11T04:43:38;38.77;;;24.90;;
15198;SDS011;7700;48.654;9.070;2024-01-11T04:46:17;37.03;;;23.83;;
15198;SDS011;7700;48.654;9.070;2024-01-11T04:48:43;35.70;;;23.30;;
15198;SDS011;7700;48.654;9.070;2024-01-11T04:51:09;37.00;;;25.13;;
15198;SDS011;7700;48.654;9.070;2024-01-11T04:53:38;62.10;;;35.40;;
15198;SDS011;7700;48.654;9.070;2024-01-11T04:56:04;49.37;;;33.10;;
15198;SDS011;7700;48.654;9.070;2024-01-11T04:58:34;41.17;;;26.90;;
15198;SDS011;7700;48.654;9.070;2024-01-11T05:00:59;33.00;;;24.33;;
15198;SDS011;7700;48.654;9.070;2024-01-11T05:03:25;36.00;;;24.47;;
15198;SDS011;7700;48.654;9.070;2024-01-11T05:05:51;36.70;;;23.57;;
15198;SDS011;7700;48.654;9.070;2024-01-11T05:08:16;38.73;;;25.87;;
15198;SDS011;7700;48.654;9.070;2024-01-11T05:10:42;35.77;;;24.40;;
15198;SDS011;7700;48.654;9.070;2024-01-11T05:13:07;35.47;;;25.83;;
15198;SDS011;7700;48.654;9.070;2024-01-11T05:15:34;39.07;;;23.93;;
15198;SDS011;7700;48.654;9.070;2024-01-11T05:17:59;34.30;;;24.00;;
15198;SDS011;7700;48.654;9.070;2024-01-11T05:20:25;40.63;;;24.93;;
15198;SDS011;7700;48.654;9.070;2024-01-11T05:22:50;37.33;;;25.27;;
15198;SDS011;7700;48.654;9.070;2024-01-11T05:25:16;38.00;;;27.00;;
15198;SDS011;7700;48.654;9.070;2024-01-11T05:27:41;37.87;;;24.90;;
15198;SDS011;7700;48.654;9.070;2024-01-11T05:30:07;35.23;;;24.87;;
15198;SDS011;7700;48.654;9.070;2024-01-11T05:32:33;35.77;;;24.43;;
15198;SDS011;7700;48.654;9.070;2024-01-11T05:34:58;36.33;;;25.83;;
15198;SDS011;7700;48.654;9.070;2024-01-11T05:37:24;37.03;;;26.77;;
15198;SDS011;7700;48.654;9.070;2024-01-11T05:39:49;33.80;;;25.60;;
15198;SDS011;7700;48.654;9.070;2024-01-11T05:42:15;39.00;;;27.20;;
15198;SDS011;7700;48.654;9.070;2024-01-11T05:44:40;40.47;;;26.27;;
15198;SDS011;7700;48.654;9.070;2024-01-11T05:47:06;39.40;;;26.93;;
15198;SDS011;7700;48.654;9.070;2024-01-11T05:49:31;36.20;;;25.67;;
15198;SDS011;7700;48.654;9.070;2024-01-11T05:51:57;35.97;;;26.40;;
15198;SDS011;7700;48.654;9.070;2024-01-11T05:54:22;43.47;;;28.80;;
15198;SDS011;7700;48.654;9.070;2024-01-11T05:56:48;47.57;;;31.47;;
15198;SDS011;7700;48.654;9.070;2024-01-11T05:59:14;42.67;;;28.90;;
15198;SDS011;7700;48.654;9.070;2024-01-11T06:01:40;36.10;;;23.90;;
15198;SDS011;7700;48.654;9.070;2024-01-11T06:04:08;34.83;;;23.93;;
15198;SDS011;7700;48.654;9.070;2024-01-11T06:06:33;38.63;;;24.80;;
15198;SDS011;7700;48.654;9.070;2024-01-11T06:08:59;34.90;;;24.43;;
15198;SDS011;7700;48.654;9.070;2024-01-11T06:11:24;34.57;;;25.43;;
15198;SDS011;7700;48.654;9.070;2024-01-11T06:13:50;38.37;;;25.87;;
15198;SDS011;7700;48.654;9.070;2024-01-11T06:16:15;39.73;;;26.27;;
15198;SDS011;7700;48.654;9.070;2024-01-11T06:18:41;38.37;;;27.53;;
15198;SDS011;7700;48.654;9.070;2024-01-11T06:21:06;36.53;;;25.67;;
15198;SDS011;7700;48.654;9.070;2024-01-11T06:23:32;37.93;;;26.53;;
15198;SDS011;7700;48.654;9.070;2024-01-11T06:25:57;39.93;;;25.03;;
15198;SDS011;7700;48.654;9.070;2024-01-11T06:28:23;39.37;;;26.47;;
15198;SDS011;7700;48.654;9.070;2024-01-11T06:30:48;36.77;;;25.10;;
15198;SDS011;7700;48.654;9.070;2024-01-11T06:33:14;39.80;;;26.17;;
15198;SDS011;7700;48.654;9.070;2024-01-11T06:35:39;40.30;;;27.80;;
15198;SDS011;7700;48.654;9.070;2024-01-11T06:38:05;38.93;;;27.50;;
15198;SDS011;7700;48.654;9.070;2024-01-11T06:40:30;45.07;;;28.10;;
15198;SDS011;7700;48.654;9.070;2024-01-11T06:42:56;40.53;;;26.93;;
15198;SDS011;7700;48.654;9.070;2024-01-11T06:45:21;45.30;;;28.20;;
15198;SDS011;7700;48.654;9.070;2024-01-11T06:47:47;38.87;;;27.03;;
15198;SDS011;7700;48.654;9.070;2024-01-11T06:50:13;41.70;;;28.67;;
15198;SDS011;7700;48.654;9.070;2024-01-11T06:52:39;42.10;;;27.03;;
15198;SDS011;7700;48.654;9.070;2024-01-11T06:55:05;44.57;;;28.33;;
15198;SDS011;7700;48.654;9.070;2024-01-11T06:57:31;34.73;;;24.73;;
15198;SDS011;7700;48.654;9.070;2024-01-11T06:59:56;41.20;;;26.57;;
15198;SDS011;7700;48.654;9.070;2024-01-11T07:02:22;39.43;;;28.20;;
15198;SDS011;7700;48.654;9.070;2024-01-11T07:04:47;40.83;;;26.27;;
15198;SDS011;7700;48.654;9.070;2024-01-11T07:07:13;39.03;;;25.37;;
15198;SDS011;7700;48.654;9.070;2024-01-11T07:09:38;37.57;;;26.13;;
15198;SDS011;7700;48.654;9.070;2024-01-11T07:12:04;41.53;;;27.67;;
15198;SDS011;7700;48.654;9.070;2024-01-11T07:14:31;41.20;;;29.70;;
15198;SDS011;7700;48.654;9.070;2024-01-11T07:16:56;39.90;;;28.67;;
15198;SDS011;7700;48.654;9.070;2024-01-11T07:19:22;37.97;;;26.90;;
15198;SDS011;7700;48.654;9.070;2024-01-11T07:21:48;37.40;;;25.47;;
15198;SDS011;7700;48.654;9.070;2024-01-11T07:24:13;37.43;;;24.87;;
15198;SDS011;7700;48.654;9.070;2024-01-11T07:26:39;34.07;;;24.87;;
15198;SDS011;7700;48.654;9.070;2024-01-11T07:29:05;38.20;;;25.47;;
15198;SDS011;7700;48.654;9.070;2024-01-11T07:31:30;34.07;;;23.70;;
15198;SDS011;7700;48.654;9.070;2024-01-11T07:33:56;33.20;;;24.60;;
15198;SDS011;7700;48.654;9.070;2024-01-11T07:36:21;36.90;;;24.93;;
15198;SDS011;7700;48.654;9.070;2024-01-11T07:38:47;33.27;;;23.33;;
15198;SDS011;7700;48.654;9.070;2024-01-11T07:41:12;32.07;;;22.20;;
15198;SDS011;7700;48.654;9.070;2024-01-11T07:43:38;36.77;;;22.00;;
15198;SDS011;7700;48.654;9.070;2024-01-11T07:46:05;34.40;;;22.30;;
15198;SDS011;7700;48.654;9.070;2024-01-11T07:48:32;30.57;;;21.37;;
15198;SDS011;7700;48.654;9.070;2024-01-11T07:50:58;32.47;;;22.67;;
15198;SDS011;7700;48.654;9.070;2024-01-11T07:53:24;30.67;;;21.63;;
15198;SDS011;7700;48.654;9.070;2024-01-11T07:55:51;30.93;;;22.83;;
15198;SDS011;7700;48.654;9.070;2024-01-11T07:58:17;34.90;;;24.20;;
15198;SDS011;7700;48.654;9.070;2024-01-11T08:00:43;32.40;;;23.83;;
15198;SDS011;7700;48.654;9.070;2024-01-11T08:03:08;32.97;;;23.50;;
15198;SDS011;7700;48.654;9.070;2024-01-11T08:05:34;34.90;;;24.83;;
15198;SDS011;7700;48.654;9.070;2024-01-11T08:08:00;38.50;;;25.83;;
15198;SDS011;7700;48.654;9.070;2024-01-11T08:10:28;38.87;;;27.80;;
15198;SDS011;7700;48.654;9.070;2024-01-11T08:12:53;43.57;;;30.60;;
15198;SDS011;7700;48.654;9.070;2024-01-11T08:15:20;42.37;;;31.53;;
15198;SDS011;7700;48.654;9.070;2024-01-11T08:17:45;38.37;;;29.00;;
15198;SDS011;7700;48.654;9.070;2024-01-11T08:20:11;38.67;;;28.67;;
15198;SDS011;7700;48.654;9.070;2024-01-11T08:22:43;37.83;;;28.83;;
15198;SDS011;7700;48.654;9.070;2024-01-11T08:25:09;40.00;;;29.40;;
15198;SDS011;7700;48.654;9.070;2024-01-11T08:27:36;40.47;;;28.57;;
15198;SDS011;7700;48.654;9.070;2024-01-11T08:30:02;39.37;;;30.37;;
15198;SDS011;7700;48.654;9.070;2024-01-11T08:32:29;40.60;;;32.13;;
15198;SDS011;7700;48.654;9.070;2024-01-11T08:34:56;29.50;;;23.90;;
15198;SDS011;7700;48.654;9.070;2024-01-11T08:37:22;26.93;;;20.43;;
15198;SDS011;7700;48.654;9.070;2024-01-11T08:39:48;31.27;;;21.33;;
15198;SDS011;7700;48.654;9.070;2024-01-11T08:42:14;29.43;;;21.70;;
15198;SDS011;7700;48.654;9.070;2024-01-11T08:44:43;29.90;;;22.13;;
15198;SDS011;7700;48.654;9.070;2024-01-11T08:47:09;28.77;;;22.33;;
15198;SDS011;7700;48.654;9.070;2024-01-11T08:49:38;29.90;;;23.97;;
15198;SDS011;7700;48.654;9.070;2024-01-11T08:52:04;32.13;;;24.93;;
15198;SDS011;7700;48.654;9.070;2024-01-11T08:54:30;30.70;;;25.57;;
15198;SDS011;7700;48.654;9.070;2024-01-11T08:56:58;30.17;;;25.80;;
15198;SDS011;7700;48.654;9.070;2024-01-11T08:59:23;31.13;;;26.33;;
15198;SDS011;7700;48.654;9.070;2024-01-11T09:01:50;27.93;;;24.13;;
15198;SDS011;7700;48.654;9.070;2024-01-11T09:04:16;29.10;;;23.07;;
15198;SDS011;7700;48.654;9.070;2024-01-11T09:06:42;30.33;;;23.33;;
15198;SDS011;7700;48.654;9.070;2024-01-11T09:09:08;29.40;;;23.27;;
15198;SDS011;7700;48.654;9.070;2024-01-11T09:11:36;28.23;;;24.37;;
15198;SDS011;7700;48.654;9.070;2024-01-11T09:14:01;31.10;;;24.23;;
15198;SDS011;7700;48.654;9.070;2024-01-11T09:16:30;31.97;;;25.33;;
15198;SDS011;7700;48.654;9.070;2024-01-11T09:18:55;29.07;;;23.93;;
15198;SDS011;7700;48.654;9.070;2024-01-11T09:21:21;31.50;;;25.80;;
15198;SDS011;7700;48.654;9.070;2024-01-11T09:23:47;27.27;;;23.70;;
15198;SDS011;7700;48.654;9.070;2024-01-11T09:26:12;29.53;;;24.07;;
15198;SDS011;7700;48.654;9.070;2024-01-11T09:28:38;31.73;;;26.30;;
15198;SDS011;7700;48.654;9.070;2024-01-11T09:31:04;28.77;;;25.03;;
15198;SDS011;7700;48.654;9.070;2024-01-11T09:33:29;32.10;;;26.10;;
15198;SDS011;7700;48.654;9.070;2024-01-11T09:35:55;31.27;;;25.27;;
15198;SDS011;7700;48.654;9.070;2024-01-11T09:38:23;31.13;;;26.50;;
15198;SDS011;7700;48.654;9.070;2024-01-11T09:40:57;33.57;;;27.30;;
15198;SDS011;7700;48.654;9.070;2024-01-11T09:43:33;32.33;;;27.20;;
15198;SDS011;7700;48.654;9.070;2024-01-11T09:45:59;29.77;;;25.23;;
15198;SDS011;7700;48.654;9.070;2024-01-11T09:48:31;31.90;;;25.80;;
15198;SDS011;7700;48.654;9.070;2024-01-11T09:50:58;31.73;;;25.60;;
15198;SDS011;7700;48.654;9.070;2024-01-11T09:53:27;30.70;;;26.23;;
15198;SDS011;7700;48.654;9.070;2024-01-11T09:55:53;33.63;;;27.70;;
15198;SDS011;7700;48.654;9.070;2024-01-11T09:58:20;31.60;;;27.17;;
15198;SDS011;7700;48.654;9.070;2024-01-11T10:03:29;35.97;;;28.07;;
15198;SDS011;7700;48.654;9.070;2024-01-11T10:05:57;30.83;;;27.27;;
15198;SDS011;7700;48.654;9.070;2024-01-11T10:08:23;31.00;;;26.43;;
15198;SDS011;7700;48.654;9.070;2024-01-11T10:10:49;30.33;;;25.10;;
15198;SDS011;7700;48.654;9.070;2024-01-11T10:13:15;30.17;;;26.73;;
15198;SDS011;7700;48.654;9.070;2024-01-11T10:15:41;32.13;;;26.83;;
15198;SDS011;7700;48.654;9.070;2024-01-11T10:18:08;31.73;;;26.27;;
15198;SDS011;7700;48.654;9.070;2024-01-11T10:20:33;36.33;;;26.43;;
15198;SDS011;7700;48.654;9.070;2024-01-11T10:22:59;33.17;;;28.50;;
15198;SDS011;7700;48.654;9.070;2024-01-11T10:25:26;30.93;;;26.63;;
15198;SDS011;7700;48.654;9.070;2024-01-11T10:27:51;32.80;;;28.03;;
15198;SDS011;7700;48.654;9.070;2024-01-11T10:30:17;33.03;;;26.73;;
15198;SDS011;7700;48.654;9.070;2024-01-11T10:32:45;31.50;;;26.87;;
15198;SDS011;7700;48.654;9.070;2024-01-11T10:35:12;33.23;;;27.37;;
15198;SDS011;7700;48.654;9.070;2024-01-11T10:37:37;33.53;;;27.60;;
15198;SDS011;7700;48.654;9.070;2024-01-11T10:40:07;33.50;;;28.03;;
15198;SDS011;7700;48.654;9.070;2024-01-11T10:42:41;32.47;;;26.40;;
15198;SDS011;7700;48.654;9.070;2024-01-11T10:45:15;33.67;;;27.23;;
15198;SDS011;7700;48.654;9.070;2024-01-11T10:47:52;32.67;;;27.90;;
15198;SDS011;7700;48.654;9.070;2024-01-11T10:50:19;32.40;;;27.90;;
15198;SDS011;7700;48.654;9.070;2024-01-11T10:52:54;31.73;;;27.47;;
15198;SDS011;7700;48.654;9.070;2024-01-11T10:55:28;32.57;;;28.10;;
15198;SDS011;7700;48.654;9.070;2024-01-11T10:57:59;32.80;;;28.87;;
15198;SDS011;7700;48.654;9.070;2024-01-11T11:00:27;31.50;;;28.07;;
15198;SDS011;7700;48.654;9.070;2024-01-11T11:02:53;30.33;;;26.80;;
15198;SDS011;7700;48.654;9.070;2024-01-11T11:05:20;32.13;;;28.53;;
15198;SDS011;7700;48.654;9.070;2024-01-11T11:07:48;32.07;;;28.17;;
15198;SDS011;7700;48.654;9.070;2024-01-11T11:10:15;31.00;;;27.63;;
15198;SDS011;7700;48.654;9.070;2024-01-11T11:12:43;31.57;;;28.17;;
15198;SDS011;7700;48.654;9.070;2024-01-11T11:15:11;33.23;;;29.27;;
15198;SDS011;7700;48.654;9.070;2024-01-11T11:17:38;33.30;;;28.63;;
15198;SDS011;7700;48.654;9.070;2024-01-11T11:20:08;33.67;;;29.73;;
15198;SDS011;7700;48.654;9.070;2024-01-11T11:22:40;32.27;;;28.73;;
15198;SDS011;7700;48.654;9.070;2024-01-11T11:25:09;31.83;;;27.87;;
15198;SDS011;7700;48.654;9.070;2024-01-11T11:27:38;33.03;;;28.90;;
15198;SDS011;7700;48.654;9.070;2024-01-11T11:30:04;32.47;;;28.77;;
15198;SDS011;7700;48.654;9.070;2024-01-11T11:32:37;33.10;;;29.50;;
15198;SDS011;7700;48.654;9.070;2024-01-11T11:35:03;36.60;;;28.43;;
15198;SDS011;7700;48.654;9.070;2024-01-11T11:37:30;35.47;;;29.63;;
15198;SDS011;7700;48.654;9.070;2024-01-11T11:39:57;33.90;;;28.33;;
15198;SDS011;7700;48.654;9.070;2024-01-11T11:42:23;32.13;;;27.90;;
15198;SDS011;7700;48.654;9.070;2024-01-11T11:44:50;34.57;;;29.77;;
15198;SDS011;7700;48.654;9.070;2024-01-11T11:47:18;34.13;;;28.23;;
15198;SDS011;7700;48.654;9.070;2024-01-11T11:52:29;35.87;;;29.10;;
15198;SDS011;7700;48.654;9.070;2024-01-11T11:54:57;33.50;;;29.20;;
15198;SDS011;7700;48.654;9.070;2024-01-11T11:57:24;32.07;;;26.73;;
15198;SDS011;7700;48.654;9.070;2024-01-11T11:59:50;32.60;;;28.40;;
15198;SDS011;7700;48.654;9.070;2024-01-11T12:02:17;32.40;;;28.93;;
15198;SDS011;7700;48.654;9.070;2024-01-11T12:04:46;31.00;;;26.53;;
15198;SDS011;7700;48.654;9.070;2024-01-11T12:07:13;32.90;;;29.23;;
15198;SDS011;7700;48.654;9.070;2024-01-11T12:09:39;31.87;;;28.47;;
15198;SDS011;7700;48.654;9.070;2024-01-11T12:12:04;34.87;;;27.90;;
15198;SDS011;7700;48.654;9.070;2024-01-11T12:14:30;33.43;;;28.47;;
15198;SDS011;7700;48.654;9.070;2024-01-11T12:16:58;30.90;;;27.10;;
15198;SDS011;7700;48.654;9.070;2024-01-11T12:19:25;32.87;;;28.40;;
15198;SDS011;7700;48.654;9.070;2024-01-11T12:21:50;32.20;;;28.63;;
15198;SDS011;7700;48.654;9.070;2024-01-11T12:24:16;32.47;;;28.57;;
15198;SDS011;7700;48.654;9.070;2024-01-11T12:26:42;31.47;;;28.07;;
15198;SDS011;7700;48.654;9.070;2024-01-11T12:29:08;34.03;;;28.70;;
15198;SDS011;7700;48.654;9.070;2024-01-11T12:31:35;31.83;;;27.87;;
15198;SDS011;7700;48.654;9.070;2024-01-11T12:34:03;31.87;;;28.33;;
15198;SDS011;7700;48.654;9.070;2024-01-11T12:36:30;34.53;;;28.43;;
15198;SDS011;7700;48.654;9.070;2024-01-11T12:38:57;30.73;;;26.33;;
15198;SDS011;7700;48.654;9.070;2024-01-11T12:41:23;32.93;;;28.63;;
15198;SDS011;7700;48.654;9.070;2024-01-11T12:43:49;30.90;;;25.73;;
15198;SDS011;7700;48.654;9.070;2024-01-11T12:46:15;30.60;;;25.73;;
15198;SDS011;7700;48.654;9.070;2024-01-11T12:48:41;30.33;;;25.27;;
15198;SDS011;7700;48.654;9.070;2024-01-11T12:51:07;31.80;;;25.67;;
15198;SDS011;7700;48.654;9.070;2024-01-11T12:53:32;29.97;;;24.47;;
15198;SDS011;7700;48.654;9.070;2024-01-11T12:56:04;29.20;;;24.40;;
15198;SDS011;7700;48.654;9.070;2024-01-11T12:58:35;32.53;;;26.23;;
15198;SDS011;7700;48.654;9.070;2024-01-11T13:01:04;33.40;;;26.83;;
15198;SDS011;7700;48.654;9.070;2024-01-11T13:03:32;32.83;;;26.33;;
15198;SDS011;7700;48.654;9.070;2024-01-11T13:05:58;34.37;;;27.10;;
15198;SDS011;7700;48.654;9.070;2024-01-11T13:08:24;29.83;;;25.73;;
15198;SDS011;7700;48.654;9.070;2024-01-11T13:10:52;34.27;;;26.93;;
15198;SDS011;7700;48.654;9.070;2024-01-11T13:13:17;30.67;;;26.07;;
15198;SDS011;7700;48.654;9.070;2024-01-11T13:15:43;30.17;;;25.60;;
15198;SDS011;7700;48.654;9.070;2024-01-11T13:18:09;30.63;;;25.53;;
15198;SDS011;7700;48.654;9.070;2024-01-11T13:20:35;33.70;;;26.73;;
15198;SDS011;7700;48.654;9.070;2024-01-11T13:25:45;30.40;;;25.50;;
15198;SDS011;7700;48.654;9.070;2024-01-11T13:28:11;29.43;;;25.27;;
15198;SDS011;7700;48.654;9.070;2024-01-11T13:30:37;29.80;;;26.53;;
15198;SDS011;7700;48.654;9.070;2024-01-11T13:33:04;30.73;;;25.33;;
15198;SDS011;7700;48.654;9.070;2024-01-11T13:35:30;28.73;;;23.77;;
15198;SDS011;7700;48.654;9.070;2024-01-11T13:37:56;29.50;;;24.13;;
15198;SDS011;7700;48.654;9.070;2024-01-11T13:40:22;26.27;;;23.20;;
15198;SDS011;7700;48.654;9.070;2024-01-11T13:42:47;26.60;;;23.73;;
15198;SDS011;7700;48.654;9.070;2024-01-11T13:45:13;28.67;;;24.67;;
15198;SDS011;7700;48.654;9.070;2024-01-11T13:47:38;29.47;;;22.93;;
15198;SDS011;7700;48.654;9.070;2024-01-11T13:50:04;28.70;;;24.67;;
15198;SDS011;7700;48.654;9.070;2024-01-11T13:52:30;58.70;;;40.13;;
15198;SDS011;7700;48.654;9.070;2024-01-11T13:54:55;35.60;;;28.17;;
15198;SDS011;7700;48.654;9.070;2024-01-11T13:57:21;31.63;;;28.10;;
15198;SDS011;7700;48.654;9.070;2024-01-11T13:59:47;33.17;;;27.77;;
15198;SDS011;7700;48.654;9.070;2024-01-11T14:02:12;31.73;;;25.93;;
15198;SDS011;7700;48.654;9.070;2024-01-11T14:04:38;32.43;;;26.60;;
15198;SDS011;7700;48.654;9.070;2024-01-11T14:07:04;34.53;;;27.90;;
15198;SDS011;7700;48.654;9.070;2024-01-11T14:09:30;31.33;;;27.53;;
15198;SDS011;7700;48.654;9.070;2024-01-11T14:11:55;31.30;;;27.20;;
15198;SDS011;7700;48.654;9.070;2024-01-11T14:14:21;32.27;;;28.27;;
15198;SDS011;7700;48.654;9.070;2024-01-11T14:16:46;33.47;;;28.80;;
15198;SDS011;7700;48.654;9.070;2024-01-11T14:19:12;34.27;;;28.20;;
15198;SDS011;7700;48.654;9.070;2024-01-11T14:21:38;35.50;;;29.20;;
15198;SDS011;7700;48.654;9.070;2024-01-11T14:24:04;35.63;;;29.60;;
15198;SDS011;7700;48.654;9.070;2024-01-11T14:26:31;36.73;;;29.57;;
15198;SDS011;7700;48.654;9.070;2024-01-11T14:28:57;34.97;;;27.97;;
15198;SDS011;7700;48.654;9.070;2024-01-11T14:31:23;37.43;;;32.07;;
15198;SDS011;7700;48.654;9.070;2024-01-11T14:33:48;40.20;;;32.37;;
15198;SDS011;7700;48.654;9.070;2024-01-11T14:36:14;35.60;;;29.57;;